Graz, Austria

10:01 AM CET on February 07, 2016 (GMT +0100)
Graz | | Change Station
CLOSE
Current Station
Airport
Location: Graz,
Elevation: 1115 ft
Nearby Weather Stations

Elev 1115 ft 46.99 °N, 15.44 °E | Updated 11 minutes ago

Mostly Cloudy
Mostly Cloudy
48 °F
Feels Like 48 °F
N
7
Wind Variable Wind from South

Today
High -- | Low -- °F
--% Chance of Precip.
Yesterday
High -- | Low -- °F
Precip. -- in
Pressure 29.92 in
Visibility 6.2 miles
Clouds Few 4000 ft
Scattered Clouds 16000 ft
Mostly Cloudy 24000 ft
Dew Point 34 °F
Humidity 58%
Rainfall 0.00 in
Snow Depth Not available.
7:16 AM 5:09 PM
Waning Crescent, 2% visible
METAR LOWG 070850Z 19006KT 170V240 9999 FEW040 SCT160 BKN240 09/01 Q1013 NOSIG
Pressure 29.92 in
Visibility 6.2 miles
Clouds Few 4000 ft
Scattered Clouds 16000 ft
Mostly Cloudy 24000 ft
Dew Point 34 °F
Humidity 58%
Rainfall 0.00 in
Snow Depth Not available.
7:16 AM 5:09 PM
Waning Crescent, 2% visible
METAR LOWG 070850Z 19006KT 170V240 9999 FEW040 SCT160 BKN240 09/01 Q1013 NOSIG

10-Day Weather Forecast

Almanac

Astronomy

Feb. 07, 2016 Rise Set
Actual Time
Civil Twilight
Nautical Twilight
Astronomical Twilight
Moon
Length of Visible Light
Length of Day
Tomorrow will be .
, % of the Moon is Illuminated

Today's Extremes

Country Highs Country Lows

Community

WunderPhotos

Upload Photos

1,891,171 photos uploaded!

WunderBlog® & News

Nearby

Air Quality

  Air Quality AQ Index Pollutant
Not available.

Snow Depth

Station Depth Elevation

Earthquake Activity

City Distance Mag. Time & Date
Minimum magnitude displayed is 2.5.

Coastal Water Temperatures

Place Temperature

Stations

Nearby Weather Stations

Station Location Temp. Windchill Dew Point Humidity Wind Precip. Elev Updated Type